Knot Bad — ZJL8091 — position and weather

sailwx.info

Track history (hours):
 
Tides and Currents Weather Stations Pressure Air Temp Water Temp Dewpoint Dewpoint Depression Visibility Wind Speed Wind Dir Waves Ship Positions

Knot Bad

Last reported at 2013-Jul-23 16:28 UTC. Time now 2014-Sep-20 20:08 UTC.
Position N 18°23' W 064°42'.
Warning: this ship's position is years out of date!

Length 16 m.

Type: Sailing vessel. MMSI: 378111591.

Date/timePositionNaut miles runAvg speedWind from/ knotsBaromVisibWave heightAir tempDewpointWater temp
2013-Jul-23 16:28N 18°23' W 064°42'0 0.0
2013-Jul-23 15:04N 18°23' W 064°42'0 0.0
2013-Jul-23 14:16N 18°23' W 064°42'0 0.0
2013-Jul-23 12:28N 18°23' W 064°42'0 0.0
2013-Jul-23 11:28N 18°23' W 064°42'0 0.0
2013-Jul-23 10:28N 18°23' W 064°42'0 0.0
2013-Jul-23 09:22N 18°23' W 064°42'0 0.0
2013-Jul-23 08:22N 18°23' W 064°42'0 0.0
2013-Jul-23 07:22N 18°23' W 064°42'0 0.0
2013-Jul-23 06:16N 18°23' W 064°42'0 0.0
2013-Jul-23 05:10N 18°23' W 064°42'0 0.0
2013-Jul-23 04:22N 18°23' W 064°42'0 0.0
2013-Jul-23 02:28N 18°23' W 064°42'0 0.0
2013-Jul-23 01:28N 18°23' W 064°42'0 0.0
2013-Jul-23 00:28N 18°23' W 064°42'0 0.0
2013-Jul-22 23:10N 18°23' W 064°42'0 0.0
2013-Jul-22 22:22N 18°23' W 064°42'0 0.0
2013-Jul-22 20:22N 18°23' W 064°42'0 0.0
2013-Jul-22 19:28N 18°23' W 064°42'  
2013-Jul-20 15:27N 18°23' W 064°42'2 0.6
2013-Jul-20 11:33N 18°25' W 064°44'2 1.7
2013-Jul-20 10:16N 18°27' W 064°45'0 0.0
2013-Jul-20 09:28N 18°26' W 064°45'0 0.0
2013-Jul-20 08:28N 18°27' W 064°45'0 0.0
2013-Jul-20 07:28N 18°27' W 064°45'0 0.0
2013-Jul-20 06:28N 18°27' W 064°45'0 0.0
2013-Jul-20 05:28N 18°27' W 064°45'0 0.0
2013-Jul-20 04:28N 18°27' W 064°45'0 0.0
2013-Jul-20 03:28N 18°26' W 064°45'0 0.0
2013-Jul-20 02:28N 18°26' W 064°45'0 0.0
2013-Jul-20 01:33N 18°26' W 064°45'0 0.0
2013-Jul-20 00:23N 18°27' W 064°45'0 0.0
2013-Jul-19 23:29N 18°26' W 064°45'0 0.0
2013-Jul-19 22:29N 18°26' W 064°45'0 0.0
2013-Jul-19 21:23N 18°26' W 064°45'0 0.0
2013-Jul-19 20:23N 18°26' W 064°45'0 0.0
2013-Jul-19 19:23N 18°26' W 064°45'0 0.6
2013-Jul-19 18:33N 18°26' W 064°46'0 0.0
2013-Jul-19 17:33N 18°26' W 064°46'0 0.0
2013-Jul-19 16:33N 18°26' W 064°46'0 0.0
2013-Jul-19 15:33N 18°26' W 064°46'2 1.8
2013-Jul-19 14:33N 18°26' W 064°44'  
2013-Jul-15 14:33N 18°19' W 064°37'6 0.3
2013-Jul-14 15:32N 18°23' W 064°43'  
Track history (hours):
 
Tides and Currents Weather Stations Pressure Air Temp Water Temp Dewpoint Dewpoint Depression Visibility Wind Speed Wind Dir Waves Ship Positions

Knot Bad

Last reported at 2013-Jul-23 16:28 UTC. Time now 2014-Sep-20 20:08 UTC.
Position N 18°23' W 064°42'.
Warning: this ship's position is years out of date!

Length 16 m.

Type: Sailing vessel. MMSI: 378111591.

Date/timePositionNaut miles runAvg speedWind from/ knotsBaromVisibWave heightAir tempDewpointWater temp
2013-Jul-23 16:28N 18°23' W 064°42'0 0.0
2013-Jul-23 15:04N 18°23' W 064°42'0 0.0
2013-Jul-23 14:16N 18°23' W 064°42'0 0.0
2013-Jul-23 12:28N 18°23' W 064°42'0 0.0
2013-Jul-23 11:28N 18°23' W 064°42'0 0.0
2013-Jul-23 10:28N 18°23' W 064°42'0 0.0
2013-Jul-23 09:22N 18°23' W 064°42'0 0.0
2013-Jul-23 08:22N 18°23' W 064°42'0 0.0
2013-Jul-23 07:22N 18°23' W 064°42'0 0.0
2013-Jul-23 06:16N 18°23' W 064°42'0 0.0
2013-Jul-23 05:10N 18°23' W 064°42'0 0.0
2013-Jul-23 04:22N 18°23' W 064°42'0 0.0
2013-Jul-23 02:28N 18°23' W 064°42'0 0.0
2013-Jul-23 01:28N 18°23' W 064°42'0 0.0
2013-Jul-23 00:28N 18°23' W 064°42'0 0.0
2013-Jul-22 23:10N 18°23' W 064°42'0 0.0
2013-Jul-22 22:22N 18°23' W 064°42'0 0.0
2013-Jul-22 20:22N 18°23' W 064°42'0 0.0
2013-Jul-22 19:28N 18°23' W 064°42'  
2013-Jul-20 15:27N 18°23' W 064°42'2 0.6
2013-Jul-20 11:33N 18°25' W 064°44'2 1.7
2013-Jul-20 10:16N 18°27' W 064°45'0 0.0
2013-Jul-20 09:28N 18°26' W 064°45'0 0.0
2013-Jul-20 08:28N 18°27' W 064°45'0 0.0
2013-Jul-20 07:28N 18°27' W 064°45'0 0.0
2013-Jul-20 06:28N 18°27' W 064°45'0 0.0
2013-Jul-20 05:28N 18°27' W 064°45'0 0.0
2013-Jul-20 04:28N 18°27' W 064°45'0 0.0
2013-Jul-20 03:28N 18°26' W 064°45'0 0.0
2013-Jul-20 02:28N 18°26' W 064°45'0 0.0
2013-Jul-20 01:33N 18°26' W 064°45'0 0.0
2013-Jul-20 00:23N 18°27' W 064°45'0 0.0
2013-Jul-19 23:29N 18°26' W 064°45'0 0.0
2013-Jul-19 22:29N 18°26' W 064°45'0 0.0
2013-Jul-19 21:23N 18°26' W 064°45'0 0.0
2013-Jul-19 20:23N 18°26' W 064°45'0 0.0
2013-Jul-19 19:23N 18°26' W 064°45'0 0.6
2013-Jul-19 18:33N 18°26' W 064°46'0 0.0
2013-Jul-19 17:33N 18°26' W 064°46'0 0.0
2013-Jul-19 16:33N 18°26' W 064°46'0 0.0
2013-Jul-19 15:33N 18°26' W 064°46'2 1.8
2013-Jul-19 14:33N 18°26' W 064°44'  
2013-Jul-15 14:33N 18°19' W 064°37'6 0.3
2013-Jul-14 15:32N 18°23' W 064°43'  

Dump ship's entire track history